sensor_id;sensor_type;location;lat;lon;timestamp;temperature;humidity
60309;DHT22;50313;52.894;6.492;2023-09-18T00:02:14;16.10;99.90
60309;DHT22;50313;52.894;6.492;2023-09-18T00:04:39;16.10;99.90
60309;DHT22;50313;52.894;6.492;2023-09-18T00:07:05;16.10;99.90
60309;DHT22;50313;52.894;6.492;2023-09-18T00:09:31;16.10;99.90
60309;DHT22;50313;52.894;6.492;2023-09-18T00:11:56;16.10;99.90
60309;DHT22;50313;52.894;6.492;2023-09-18T00:14:22;16.10;99.90
60309;DHT22;50313;52.894;6.492;2023-09-18T00:16:48;16.10;99.90
60309;DHT22;50313;52.894;6.492;2023-09-18T00:19:14;16.10;99.90
60309;DHT22;50313;52.894;6.492;2023-09-18T00:21:40;16.10;99.90
60309;DHT22;50313;52.894;6.492;2023-09-18T00:24:06;16.10;99.90
60309;DHT22;50313;52.894;6.492;2023-09-18T00:26:33;16.00;99.90
60309;DHT22;50313;52.894;6.492;2023-09-18T00:28:59;16.00;99.90
60309;DHT22;50313;52.894;6.492;2023-09-18T00:31:25;16.00;99.90
60309;DHT22;50313;52.894;6.492;2023-09-18T00:33:51;16.00;99.90
60309;DHT22;50313;52.894;6.492;2023-09-18T00:36:16;16.00;99.90
60309;DHT22;50313;52.894;6.492;2023-09-18T00:38:42;16.00;99.90
60309;DHT22;50313;52.894;6.492;2023-09-18T00:41:09;16.10;99.90
60309;DHT22;50313;52.894;6.492;2023-09-18T00:43:35;16.20;99.90
60309;DHT22;50313;52.894;6.492;2023-09-18T00:46:01;16.30;99.90
60309;DHT22;50313;52.894;6.492;2023-09-18T00:48:26;16.40;99.90
60309;DHT22;50313;52.894;6.492;2023-09-18T00:50:54;16.60;99.90
60309;DHT22;50313;52.894;6.492;2023-09-18T00:53:21;16.70;99.90
60309;DHT22;50313;52.894;6.492;2023-09-18T00:55:50;16.70;99.90
60309;DHT22;50313;52.894;6.492;2023-09-18T00:58:17;16.80;99.90
60309;DHT22;50313;52.894;6.492;2023-09-18T01:00:45;16.80;99.90
60309;DHT22;50313;52.894;6.492;2023-09-18T01:03:11;16.90;99.90
60309;DHT22;50313;52.894;6.492;2023-09-18T01:05:37;16.90;99.90
60309;DHT22;50313;52.894;6.492;2023-09-18T01:08:03;16.90;99.90
60309;DHT22;50313;52.894;6.492;2023-09-18T01:10:36;16.90;99.90
60309;DHT22;50313;52.894;6.492;2023-09-18T01:13:12;16.90;99.90
60309;DHT22;50313;52.894;6.492;2023-09-18T01:15:58;17.00;99.90
60309;DHT22;50313;52.894;6.492;2023-09-18T01:18:26;17.00;99.90
60309;DHT22;50313;52.894;6.492;2023-09-18T01:20:51;17.00;99.90
60309;DHT22;50313;52.894;6.492;2023-09-18T01:23:17;17.00;99.90
60309;DHT22;50313;52.894;6.492;2023-09-18T01:25:43;17.00;99.90
60309;DHT22;50313;52.894;6.492;2023-09-18T01:28:08;17.00;99.90
60309;DHT22;50313;52.894;6.492;2023-09-18T01:30:34;17.00;99.90
60309;DHT22;50313;52.894;6.492;2023-09-18T01:33:01;17.00;99.90
60309;DHT22;50313;52.894;6.492;2023-09-18T01:35:29;17.00;99.90
60309;DHT22;50313;52.894;6.492;2023-09-18T01:37:57;16.90;99.90
60309;DHT22;50313;52.894;6.492;2023-09-18T01:40:24;17.00;99.90
60309;DHT22;50313;52.894;6.492;2023-09-18T01:42:51;17.00;99.90
60309;DHT22;50313;52.894;6.492;2023-09-18T01:45:17;17.00;99.90
60309;DHT22;50313;52.894;6.492;2023-09-18T01:47:42;17.10;99.90
60309;DHT22;50313;52.894;6.492;2023-09-18T01:50:08;17.10;99.90
60309;DHT22;50313;52.894;6.492;2023-09-18T01:52:35;17.10;99.90
60309;DHT22;50313;52.894;6.492;2023-09-18T01:55:01;17.10;99.90
60309;DHT22;50313;52.894;6.492;2023-09-18T01:57:27;17.10;99.90
60309;DHT22;50313;52.894;6.492;2023-09-18T01:59:53;17.10;99.90
60309;DHT22;50313;52.894;6.492;2023-09-18T02:02:18;17.10;99.90
60309;DHT22;50313;52.894;6.492;2023-09-18T02:04:44;17.10;99.90
60309;DHT22;50313;52.894;6.492;2023-09-18T02:07:10;17.00;99.90
60309;DHT22;50313;52.894;6.492;2023-09-18T02:09:36;17.10;99.90
60309;DHT22;50313;52.894;6.492;2023-09-18T02:12:02;17.10;99.90
60309;DHT22;50313;52.894;6.492;2023-09-18T02:14:28;17.10;99.90
60309;DHT22;50313;52.894;6.492;2023-09-18T02:16:56;17.20;99.90
60309;DHT22;50313;52.894;6.492;2023-09-18T02:19:22;17.20;99.90
60309;DHT22;50313;52.894;6.492;2023-09-18T02:21:48;17.20;99.90
60309;DHT22;50313;52.894;6.492;2023-09-18T02:24:14;17.20;99.90
60309;DHT22;50313;52.894;6.492;2023-09-18T02:26:39;17.20;99.90
60309;DHT22;50313;52.894;6.492;2023-09-18T02:29:09;17.30;99.90
60309;DHT22;50313;52.894;6.492;2023-09-18T02:31:37;17.30;99.90
60309;DHT22;50313;52.894;6.492;2023-09-18T02:34:03;17.30;99.90
60309;DHT22;50313;52.894;6.492;2023-09-18T02:36:29;17.30;99.90
60309;DHT22;50313;52.894;6.492;2023-09-18T02:38:55;17.30;99.90
60309;DHT22;50313;52.894;6.492;2023-09-18T02:41:21;17.30;99.90
60309;DHT22;50313;52.894;6.492;2023-09-18T02:43:46;17.30;99.90
60309;DHT22;50313;52.894;6.492;2023-09-18T02:46:12;17.30;99.90
60309;DHT22;50313;52.894;6.492;2023-09-18T02:48:38;17.30;99.90
60309;DHT22;50313;52.894;6.492;2023-09-18T02:51:04;17.30;99.90
60309;DHT22;50313;52.894;6.492;2023-09-18T02:53:30;17.30;99.90
60309;DHT22;50313;52.894;6.492;2023-09-18T02:55:57;17.30;99.90
60309;DHT22;50313;52.894;6.492;2023-09-18T02:58:23;17.30;99.90
60309;DHT22;50313;52.894;6.492;2023-09-18T03:00:52;17.30;99.90
60309;DHT22;50313;52.894;6.492;2023-09-18T03:03:19;17.30;99.90
60309;DHT22;50313;52.894;6.492;2023-09-18T03:05:45;17.40;99.90
60309;DHT22;50313;52.894;6.492;2023-09-18T03:08:11;17.30;99.90
60309;DHT22;50313;52.894;6.492;2023-09-18T03:10:41;17.30;99.90
60309;DHT22;50313;52.894;6.492;2023-09-18T03:13:09;17.30;99.90
60309;DHT22;50313;52.894;6.492;2023-09-18T03:15:35;17.40;99.90
60309;DHT22;50313;52.894;6.492;2023-09-18T03:18:02;17.30;99.90
60309;DHT22;50313;52.894;6.492;2023-09-18T03:20:28;17.30;99.90
60309;DHT22;50313;52.894;6.492;2023-09-18T03:22:56;17.40;99.90
60309;DHT22;50313;52.894;6.492;2023-09-18T03:25:23;17.40;99.90
60309;DHT22;50313;52.894;6.492;2023-09-18T03:27:53;17.40;99.90
60309;DHT22;50313;52.894;6.492;2023-09-18T03:30:21;17.40;99.90
60309;DHT22;50313;52.894;6.492;2023-09-18T03:32:47;17.50;99.90
60309;DHT22;50313;52.894;6.492;2023-09-18T03:35:16;17.60;99.90
60309;DHT22;50313;52.894;6.492;2023-09-18T03:37:46;17.60;99.90
60309;DHT22;50313;52.894;6.492;2023-09-18T03:40:12;17.60;99.90
60309;DHT22;50313;52.894;6.492;2023-09-18T03:42:37;17.70;99.90
60309;DHT22;50313;52.894;6.492;2023-09-18T03:45:05;17.70;99.90
60309;DHT22;50313;52.894;6.492;2023-09-18T03:47:33;17.70;99.90
60309;DHT22;50313;52.894;6.492;2023-09-18T03:49:59;17.80;99.90
60309;DHT22;50313;52.894;6.492;2023-09-18T03:52:25;17.80;99.90
60309;DHT22;50313;52.894;6.492;2023-09-18T03:54:50;17.80;99.90
60309;DHT22;50313;52.894;6.492;2023-09-18T03:57:16;17.80;99.90
60309;DHT22;50313;52.894;6.492;2023-09-18T03:59:42;17.80;99.90
60309;DHT22;50313;52.894;6.492;2023-09-18T04:02:08;17.80;99.90
60309;DHT22;50313;52.894;6.492;2023-09-18T04:04:33;17.80;99.90
60309;DHT22;50313;52.894;6.492;2023-09-18T04:06:59;17.80;99.90
60309;DHT22;50313;52.894;6.492;2023-09-18T04:09:25;17.80;99.90
60309;DHT22;50313;52.894;6.492;2023-09-18T04:11:51;17.80;99.90
60309;DHT22;50313;52.894;6.492;2023-09-18T04:14:17;17.80;99.90
60309;DHT22;50313;52.894;6.492;2023-09-18T04:16:43;17.70;99.90
60309;DHT22;50313;52.894;6.492;2023-09-18T04:19:09;17.70;99.90
60309;DHT22;50313;52.894;6.492;2023-09-18T04:21:35;17.70;99.90
60309;DHT22;50313;52.894;6.492;2023-09-18T04:24:01;17.70;99.90
60309;DHT22;50313;52.894;6.492;2023-09-18T04:26:28;17.80;99.90
60309;DHT22;50313;52.894;6.492;2023-09-18T04:28:57;17.70;99.90
60309;DHT22;50313;52.894;6.492;2023-09-18T04:31:22;17.70;99.90
60309;DHT22;50313;52.894;6.492;2023-09-18T04:33:48;17.70;99.90
60309;DHT22;50313;52.894;6.492;2023-09-18T04:36:15;17.80;99.90
60309;DHT22;50313;52.894;6.492;2023-09-18T04:38:41;17.80;99.90
60309;DHT22;50313;52.894;6.492;2023-09-18T04:41:06;17.90;99.90
60309;DHT22;50313;52.894;6.492;2023-09-18T04:43:39;17.90;99.90
60309;DHT22;50313;52.894;6.492;2023-09-18T04:46:05;18.00;99.90
60309;DHT22;50313;52.894;6.492;2023-09-18T04:48:32;17.90;99.90
60309;DHT22;50313;52.894;6.492;2023-09-18T04:50:59;17.90;99.90
60309;DHT22;50313;52.894;6.492;2023-09-18T04:53:27;18.00;99.90
60309;DHT22;50313;52.894;6.492;2023-09-18T04:55:53;18.10;99.90
60309;DHT22;50313;52.894;6.492;2023-09-18T04:58:18;18.10;99.90
60309;DHT22;50313;52.894;6.492;2023-09-18T05:00:44;18.10;99.90
60309;DHT22;50313;52.894;6.492;2023-09-18T05:03:12;18.10;99.90
60309;DHT22;50313;52.894;6.492;2023-09-18T05:05:38;18.10;99.90
60309;DHT22;50313;52.894;6.492;2023-09-18T05:08:07;18.20;99.90
60309;DHT22;50313;52.894;6.492;2023-09-18T05:10:34;18.10;99.90
60309;DHT22;50313;52.894;6.492;2023-09-18T05:13:00;18.20;99.90
60309;DHT22;50313;52.894;6.492;2023-09-18T05:15:26;18.10;99.90
60309;DHT22;50313;52.894;6.492;2023-09-18T05:17:52;18.20;99.90
60309;DHT22;50313;52.894;6.492;2023-09-18T05:20:21;18.20;99.90
60309;DHT22;50313;52.894;6.492;2023-09-18T05:22:50;18.20;99.90
60309;DHT22;50313;52.894;6.492;2023-09-18T05:25:16;18.20;99.90
60309;DHT22;50313;52.894;6.492;2023-09-18T05:27:42;18.20;99.90
60309;DHT22;50313;52.894;6.492;2023-09-18T05:30:11;18.20;99.90
60309;DHT22;50313;52.894;6.492;2023-09-18T05:32:38;18.20;99.90
60309;DHT22;50313;52.894;6.492;2023-09-18T05:35:05;18.20;99.90
60309;DHT22;50313;52.894;6.492;2023-09-18T05:37:32;18.20;99.90
60309;DHT22;50313;52.894;6.492;2023-09-18T05:39:58;18.10;99.90
60309;DHT22;50313;52.894;6.492;2023-09-18T05:42:24;18.10;99.90
60309;DHT22;50313;52.894;6.492;2023-09-18T05:44:50;18.10;99.90
60309;DHT22;50313;52.894;6.492;2023-09-18T05:47:16;18.10;99.90
60309;DHT22;50313;52.894;6.492;2023-09-18T05:49:41;18.10;99.90
60309;DHT22;50313;52.894;6.492;2023-09-18T05:52:07;18.10;99.90
60309;DHT22;50313;52.894;6.492;2023-09-18T05:54:33;18.10;99.90
60309;DHT22;50313;52.894;6.492;2023-09-18T05:56:59;18.10;99.90
60309;DHT22;50313;52.894;6.492;2023-09-18T05:59:25;18.10;99.90
60309;DHT22;50313;52.894;6.492;2023-09-18T06:01:50;18.10;99.90
60309;DHT22;50313;52.894;6.492;2023-09-18T06:04:19;18.10;99.90
60309;DHT22;50313;52.894;6.492;2023-09-18T06:06:45;18.10;99.90
60309;DHT22;50313;52.894;6.492;2023-09-18T06:09:11;18.10;99.90
60309;DHT22;50313;52.894;6.492;2023-09-18T06:11:38;18.10;99.90
60309;DHT22;50313;52.894;6.492;2023-09-18T06:14:03;18.20;99.90
60309;DHT22;50313;52.894;6.492;2023-09-18T06:16:30;18.20;99.90
60309;DHT22;50313;52.894;6.492;2023-09-18T06:18:56;18.30;99.90
60309;DHT22;50313;52.894;6.492;2023-09-18T06:21:22;18.30;99.90
60309;DHT22;50313;52.894;6.492;2023-09-18T06:23:47;18.40;99.90
60309;DHT22;50313;52.894;6.492;2023-09-18T06:26:13;18.40;99.90
60309;DHT22;50313;52.894;6.492;2023-09-18T06:28:40;18.50;99.90
60309;DHT22;50313;52.894;6.492;2023-09-18T06:31:05;18.40;99.90
60309;DHT22;50313;52.894;6.492;2023-09-18T06:33:31;18.50;99.90
60309;DHT22;50313;52.894;6.492;2023-09-18T06:35:57;18.50;99.90
60309;DHT22;50313;52.894;6.492;2023-09-18T06:38:23;18.50;99.90
60309;DHT22;50313;52.894;6.492;2023-09-18T06:40:49;18.50;99.90
60309;DHT22;50313;52.894;6.492;2023-09-18T06:43:15;18.50;99.90
60309;DHT22;50313;52.894;6.492;2023-09-18T06:45:41;18.60;99.90
60309;DHT22;50313;52.894;6.492;2023-09-18T06:48:07;18.60;99.90
60309;DHT22;50313;52.894;6.492;2023-09-18T06:50:32;18.60;99.90
60309;DHT22;50313;52.894;6.492;2023-09-18T06:52:58;18.60;99.90
60309;DHT22;50313;52.894;6.492;2023-09-18T06:55:24;18.60;99.90
60309;DHT22;50313;52.894;6.492;2023-09-18T06:57:50;18.60;99.90
60309;DHT22;50313;52.894;6.492;2023-09-18T07:00:17;18.60;99.90
60309;DHT22;50313;52.894;6.492;2023-09-18T07:02:46;18.60;99.90
60309;DHT22;50313;52.894;6.492;2023-09-18T07:05:12;18.50;99.90
60309;DHT22;50313;52.894;6.492;2023-09-18T07:07:38;18.40;99.90
60309;DHT22;50313;52.894;6.492;2023-09-18T07:10:04;18.40;99.90
60309;DHT22;50313;52.894;6.492;2023-09-18T07:12:30;18.40;99.90
60309;DHT22;50313;52.894;6.492;2023-09-18T07:14:58;18.30;99.90
60309;DHT22;50313;52.894;6.492;2023-09-18T07:17:24;18.30;99.90
60309;DHT22;50313;52.894;6.492;2023-09-18T07:19:49;18.30;99.90
60309;DHT22;50313;52.894;6.492;2023-09-18T07:22:15;18.20;99.90
60309;DHT22;50313;52.894;6.492;2023-09-18T07:24:41;18.20;99.90
60309;DHT22;50313;52.894;6.492;2023-09-18T07:27:08;18.20;99.90
60309;DHT22;50313;52.894;6.492;2023-09-18T07:29:34;18.20;99.90
60309;DHT22;50313;52.894;6.492;2023-09-18T07:32:00;18.30;99.90
60309;DHT22;50313;52.894;6.492;2023-09-18T07:34:27;18.30;99.90
60309;DHT22;50313;52.894;6.492;2023-09-18T07:36:52;18.30;99.90
60309;DHT22;50313;52.894;6.492;2023-09-18T07:39:21;18.30;99.90
60309;DHT22;50313;52.894;6.492;2023-09-18T07:41:46;18.30;99.90
60309;DHT22;50313;52.894;6.492;2023-09-18T07:44:19;18.30;99.90
60309;DHT22;50313;52.894;6.492;2023-09-18T07:46:45;18.30;99.90
60309;DHT22;50313;52.894;6.492;2023-09-18T07:49:10;18.40;99.90
60309;DHT22;50313;52.894;6.492;2023-09-18T07:51:36;18.40;99.90
60309;DHT22;50313;52.894;6.492;2023-09-18T07:54:02;18.40;99.90
60309;DHT22;50313;52.894;6.492;2023-09-18T07:56:28;18.40;99.90
60309;DHT22;50313;52.894;6.492;2023-09-18T07:58:54;18.50;99.90
60309;DHT22;50313;52.894;6.492;2023-09-18T08:01:19;18.40;99.90
60309;DHT22;50313;52.894;6.492;2023-09-18T08:03:48;18.50;99.90
60309;DHT22;50313;52.894;6.492;2023-09-18T08:06:14;18.50;99.90
60309;DHT22;50313;52.894;6.492;2023-09-18T08:08:43;18.50;99.90
60309;DHT22;50313;52.894;6.492;2023-09-18T08:11:09;18.50;99.90
60309;DHT22;50313;52.894;6.492;2023-09-18T08:13:35;18.50;99.90
60309;DHT22;50313;52.894;6.492;2023-09-18T08:16:01;18.50;99.90
60309;DHT22;50313;52.894;6.492;2023-09-18T08:18:27;18.50;99.90
60309;DHT22;50313;52.894;6.492;2023-09-18T08:20:53;18.50;99.90
60309;DHT22;50313;52.894;6.492;2023-09-18T08:23:20;18.50;99.90
60309;DHT22;50313;52.894;6.492;2023-09-18T08:25:45;18.60;99.90
60309;DHT22;50313;52.894;6.492;2023-09-18T08:28:12;18.60;99.90
60309;DHT22;50313;52.894;6.492;2023-09-18T08:30:40;18.70;99.90
60309;DHT22;50313;52.894;6.492;2023-09-18T08:33:10;18.70;99.90
60309;DHT22;50313;52.894;6.492;2023-09-18T08:35:36;18.70;99.90
60309;DHT22;50313;52.894;6.492;2023-09-18T08:38:02;18.80;99.90
60309;DHT22;50313;52.894;6.492;2023-09-18T08:40:29;18.90;99.90
60309;DHT22;50313;52.894;6.492;2023-09-18T08:42:55;18.90;99.90
60309;DHT22;50313;52.894;6.492;2023-09-18T08:45:46;18.90;99.90
60309;DHT22;50313;52.894;6.492;2023-09-18T08:48:13;18.90;99.90
60309;DHT22;50313;52.894;6.492;2023-09-18T08:50:39;18.90;99.90
60309;DHT22;50313;52.894;6.492;2023-09-18T08:53:05;18.90;99.90
60309;DHT22;50313;52.894;6.492;2023-09-18T08:55:33;18.90;99.90
60309;DHT22;50313;52.894;6.492;2023-09-18T08:57:59;18.90;99.90
60309;DHT22;50313;52.894;6.492;2023-09-18T09:00:26;18.90;99.90
60309;DHT22;50313;52.894;6.492;2023-09-18T09:02:52;18.90;99.90
60309;DHT22;50313;52.894;6.492;2023-09-18T09:05:21;18.90;99.90
60309;DHT22;50313;52.894;6.492;2023-09-18T09:07:48;19.00;99.90
60309;DHT22;50313;52.894;6.492;2023-09-18T09:10:14;19.00;99.90
60309;DHT22;50313;52.894;6.492;2023-09-18T09:13:00;19.00;99.90
60309;DHT22;50313;52.894;6.492;2023-09-18T09:15:34;19.10;99.90
60309;DHT22;50313;52.894;6.492;2023-09-18T09:18:10;19.10;99.90
60309;DHT22;50313;52.894;6.492;2023-09-18T09:20:36;19.30;99.90
60309;DHT22;50313;52.894;6.492;2023-09-18T09:23:05;19.30;99.90
60309;DHT22;50313;52.894;6.492;2023-09-18T09:25:32;19.40;99.90
60309;DHT22;50313;52.894;6.492;2023-09-18T09:28:00;19.40;99.90
60309;DHT22;50313;52.894;6.492;2023-09-18T09:30:28;19.50;99.90
60309;DHT22;50313;52.894;6.492;2023-09-18T09:32:55;19.70;99.90
60309;DHT22;50313;52.894;6.492;2023-09-18T09:35:30;19.80;99.90
60309;DHT22;50313;52.894;6.492;2023-09-18T09:38:08;19.90;99.90
60309;DHT22;50313;52.894;6.492;2023-09-18T09:40:34;20.00;99.90
60309;DHT22;50313;52.894;6.492;2023-09-18T09:43:01;20.10;99.90
60309;DHT22;50313;52.894;6.492;2023-09-18T09:45:29;20.20;99.90
60309;DHT22;50313;52.894;6.492;2023-09-18T09:47:56;20.20;99.90
60309;DHT22;50313;52.894;6.492;2023-09-18T09:50:23;20.20;99.90
60309;DHT22;50313;52.894;6.492;2023-09-18T09:52:52;20.30;99.90
60309;DHT22;50313;52.894;6.492;2023-09-18T09:57:51;20.30;99.90
60309;DHT22;50313;52.894;6.492;2023-09-18T10:00:17;20.50;99.90
60309;DHT22;50313;52.894;6.492;2023-09-18T10:03:03;20.50;99.90
60309;DHT22;50313;52.894;6.492;2023-09-18T10:05:31;20.70;99.90
60309;DHT22;50313;52.894;6.492;2023-09-18T10:07:59;20.80;99.90
60309;DHT22;50313;52.894;6.492;2023-09-18T10:10:31;20.70;99.90
60309;DHT22;50313;52.894;6.492;2023-09-18T10:13:02;20.70;99.90
60309;DHT22;50313;52.894;6.492;2023-09-18T10:15:31;20.80;99.90
60309;DHT22;50313;52.894;6.492;2023-09-18T10:18:00;20.90;99.90
60309;DHT22;50313;52.894;6.492;2023-09-18T10:20:28;20.80;99.90
60309;DHT22;50313;52.894;6.492;2023-09-18T10:22:56;20.80;99.90
60309;DHT22;50313;52.894;6.492;2023-09-18T10:25:24;20.90;99.90
60309;DHT22;50313;52.894;6.492;2023-09-18T10:27:54;21.20;99.90
60309;DHT22;50313;52.894;6.492;2023-09-18T10:30:29;21.20;99.90
60309;DHT22;50313;52.894;6.492;2023-09-18T10:32:58;21.30;99.90
60309;DHT22;50313;52.894;6.492;2023-09-18T10:35:25;21.50;99.90
60309;DHT22;50313;52.894;6.492;2023-09-18T10:37:54;21.60;99.90
60309;DHT22;50313;52.894;6.492;2023-09-18T10:40:20;21.60;99.90
60309;DHT22;50313;52.894;6.492;2023-09-18T10:42:48;21.70;99.90
60309;DHT22;50313;52.894;6.492;2023-09-18T10:45:15;21.90;99.90
60309;DHT22;50313;52.894;6.492;2023-09-18T10:47:44;21.70;99.90
60309;DHT22;50313;52.894;6.492;2023-09-18T10:50:12;22.00;99.90
60309;DHT22;50313;52.894;6.492;2023-09-18T10:52:44;21.80;99.90
60309;DHT22;50313;52.894;6.492;2023-09-18T10:55:14;21.70;99.90
60309;DHT22;50313;52.894;6.492;2023-09-18T10:57:53;21.70;99.90
60309;DHT22;50313;52.894;6.492;2023-09-18T11:00:19;21.70;99.90
60309;DHT22;50313;52.894;6.492;2023-09-18T11:03:16;21.60;99.90
60309;DHT22;50313;52.894;6.492;2023-09-18T11:05:46;21.50;99.90
60309;DHT22;50313;52.894;6.492;2023-09-18T11:08:45;21.60;99.90
60309;DHT22;50313;52.894;6.492;2023-09-18T11:11:12;21.40;99.90
60309;DHT22;50313;52.894;6.492;2023-09-18T11:13:51;21.30;99.90
60309;DHT22;50313;52.894;6.492;2023-09-18T11:21:31;21.60;99.90
60309;DHT22;50313;52.894;6.492;2023-09-18T11:24:05;22.00;99.90
60309;DHT22;50313;52.894;6.492;2023-09-18T11:26:33;22.10;99.90
60309;DHT22;50313;52.894;6.492;2023-09-18T11:29:07;22.00;99.90
60309;DHT22;50313;52.894;6.492;2023-09-18T11:34:14;21.60;99.90
60309;DHT22;50313;52.894;6.492;2023-09-18T11:36:41;21.50;99.90
60309;DHT22;50313;52.894;6.492;2023-09-18T11:39:07;21.00;99.90
60309;DHT22;50313;52.894;6.492;2023-09-18T11:41:35;20.70;99.90
60309;DHT22;50313;52.894;6.492;2023-09-18T11:46:47;20.10;99.90
60309;DHT22;50313;52.894;6.492;2023-09-18T11:49:24;20.10;99.90
60309;DHT22;50313;52.894;6.492;2023-09-18T11:51:53;20.30;99.90
60309;DHT22;50313;52.894;6.492;2023-09-18T11:54:19;20.50;99.90
60309;DHT22;50313;52.894;6.492;2023-09-18T11:56:45;20.50;99.90
60309;DHT22;50313;52.894;6.492;2023-09-18T11:59:11;20.40;99.90
60309;DHT22;50313;52.894;6.492;2023-09-18T12:01:37;20.60;99.90
60309;DHT22;50313;52.894;6.492;2023-09-18T12:04:06;20.90;99.90
60309;DHT22;50313;52.894;6.492;2023-09-18T12:06:39;21.10;99.90
60309;DHT22;50313;52.894;6.492;2023-09-18T12:09:06;21.40;99.90
60309;DHT22;50313;52.894;6.492;2023-09-18T12:11:33;21.60;99.90
60309;DHT22;50313;52.894;6.492;2023-09-18T12:14:03;21.60;99.90
60309;DHT22;50313;52.894;6.492;2023-09-18T12:16:29;21.90;99.90
60309;DHT22;50313;52.894;6.492;2023-09-18T12:18:55;21.70;99.90
60309;DHT22;50313;52.894;6.492;2023-09-18T12:21:22;21.60;99.90
60309;DHT22;50313;52.894;6.492;2023-09-18T12:23:48;21.80;99.90
60309;DHT22;50313;52.894;6.492;2023-09-18T12:26:16;22.00;99.90
60309;DHT22;50313;52.894;6.492;2023-09-18T12:28:45;22.00;99.90
60309;DHT22;50313;52.894;6.492;2023-09-18T12:31:15;22.20;99.90
60309;DHT22;50313;52.894;6.492;2023-09-18T12:33:43;22.20;99.90
60309;DHT22;50313;52.894;6.492;2023-09-18T12:36:18;22.20;99.90
60309;DHT22;50313;52.894;6.492;2023-09-18T12:38:55;22.10;99.90
60309;DHT22;50313;52.894;6.492;2023-09-18T12:41:21;22.10;99.90
60309;DHT22;50313;52.894;6.492;2023-09-18T12:43:47;22.10;99.90
60309;DHT22;50313;52.894;6.492;2023-09-18T12:46:13;22.10;99.90
60309;DHT22;50313;52.894;6.492;2023-09-18T12:48:40;22.20;99.90
60309;DHT22;50313;52.894;6.492;2023-09-18T12:51:11;22.10;99.90
60309;DHT22;50313;52.894;6.492;2023-09-18T12:53:37;22.30;99.90
60309;DHT22;50313;52.894;6.492;2023-09-18T12:56:14;22.20;99.90
60309;DHT22;50313;52.894;6.492;2023-09-18T12:58:41;22.30;99.90
60309;DHT22;50313;52.894;6.492;2023-09-18T13:01:09;22.60;99.90
60309;DHT22;50313;52.894;6.492;2023-09-18T13:03:42;22.40;99.90
60309;DHT22;50313;52.894;6.492;2023-09-18T13:06:10;22.50;99.90
60309;DHT22;50313;52.894;6.492;2023-09-18T13:08:36;22.60;99.90
60309;DHT22;50313;52.894;6.492;2023-09-18T13:11:01;22.80;99.90
60309;DHT22;50313;52.894;6.492;2023-09-18T13:13:32;23.00;99.90
60309;DHT22;50313;52.894;6.492;2023-09-18T13:15:59;22.90;99.90
60309;DHT22;50313;52.894;6.492;2023-09-18T13:18:26;23.00;99.90
60309;DHT22;50313;52.894;6.492;2023-09-18T13:20:53;23.00;99.90
60309;DHT22;50313;52.894;6.492;2023-09-18T13:23:19;23.00;99.90
60309;DHT22;50313;52.894;6.492;2023-09-18T13:25:45;23.30;99.90
60309;DHT22;50313;52.894;6.492;2023-09-18T13:28:13;23.40;99.90
60309;DHT22;50313;52.894;6.492;2023-09-18T13:30:41;23.50;99.90
60309;DHT22;50313;52.894;6.492;2023-09-18T13:33:08;23.50;99.90
60309;DHT22;50313;52.894;6.492;2023-09-18T13:35:39;23.80;99.90
60309;DHT22;50313;52.894;6.492;2023-09-18T13:38:06;23.70;99.90
60309;DHT22;50313;52.894;6.492;2023-09-18T13:40:34;23.30;99.90
60309;DHT22;50313;52.894;6.492;2023-09-18T13:43:02;23.00;99.90
60309;DHT22;50313;52.894;6.492;2023-09-18T13:45:30;23.40;99.90
60309;DHT22;50313;52.894;6.492;2023-09-18T13:47:56;23.80;99.90
60309;DHT22;50313;52.894;6.492;2023-09-18T13:50:22;23.80;99.90
60309;DHT22;50313;52.894;6.492;2023-09-18T13:52:48;23.80;99.90
60309;DHT22;50313;52.894;6.492;2023-09-18T13:55:13;23.80;99.90
60309;DHT22;50313;52.894;6.492;2023-09-18T13:57:39;23.80;99.90
60309;DHT22;50313;52.894;6.492;2023-09-18T14:00:06;23.60;99.90
60309;DHT22;50313;52.894;6.492;2023-09-18T14:02:41;23.70;99.90
60309;DHT22;50313;52.894;6.492;2023-09-18T14:05:08;23.80;99.90
60309;DHT22;50313;52.894;6.492;2023-09-18T14:07:35;23.90;99.90
60309;DHT22;50313;52.894;6.492;2023-09-18T14:10:00;24.50;99.90
60309;DHT22;50313;52.894;6.492;2023-09-18T14:12:30;24.80;99.90
60309;DHT22;50313;52.894;6.492;2023-09-18T14:14:56;25.30;99.90
60309;DHT22;50313;52.894;6.492;2023-09-18T14:17:22;25.10;99.90
60309;DHT22;50313;52.894;6.492;2023-09-18T14:19:48;25.40;99.60
60309;DHT22;50313;52.894;6.492;2023-09-18T14:22:14;24.90;99.90
60309;DHT22;50313;52.894;6.492;2023-09-18T14:24:40;24.50;99.90
60309;DHT22;50313;52.894;6.492;2023-09-18T14:27:06;23.90;99.90
60309;DHT22;50313;52.894;6.492;2023-09-18T14:29:33;23.80;99.90
60309;DHT22;50313;52.894;6.492;2023-09-18T14:31:59;24.10;99.90
60309;DHT22;50313;52.894;6.492;2023-09-18T14:34:26;23.50;99.90
60309;DHT22;50313;52.894;6.492;2023-09-18T14:36:52;23.10;99.90
60309;DHT22;50313;52.894;6.492;2023-09-18T14:39:18;22.90;99.90
60309;DHT22;50313;52.894;6.492;2023-09-18T14:41:43;22.70;99.90
60309;DHT22;50313;52.894;6.492;2023-09-18T14:44:10;22.60;99.90
60309;DHT22;50313;52.894;6.492;2023-09-18T14:46:36;22.60;99.90
60309;DHT22;50313;52.894;6.492;2023-09-18T14:49:03;23.10;99.90
60309;DHT22;50313;52.894;6.492;2023-09-18T14:51:29;23.20;99.90
60309;DHT22;50313;52.894;6.492;2023-09-18T14:53:57;23.40;99.90
60309;DHT22;50313;52.894;6.492;2023-09-18T14:56:23;24.30;99.90
60309;DHT22;50313;52.894;6.492;2023-09-18T14:58:49;25.10;99.90
60309;DHT22;50313;52.894;6.492;2023-09-18T15:01:18;25.20;96.40
60309;DHT22;50313;52.894;6.492;2023-09-18T15:03:44;25.80;94.80
60309;DHT22;50313;52.894;6.492;2023-09-18T15:06:13;25.40;91.80
60309;DHT22;50313;52.894;6.492;2023-09-18T15:08:39;25.80;92.30
60309;DHT22;50313;52.894;6.492;2023-09-18T15:11:05;26.40;91.40
60309;DHT22;50313;52.894;6.492;2023-09-18T15:13:31;26.50;89.80
60309;DHT22;50313;52.894;6.492;2023-09-18T15:15:57;26.30;89.60
60309;DHT22;50313;52.894;6.492;2023-09-18T15:18:25;26.00;89.20
60309;DHT22;50313;52.894;6.492;2023-09-18T15:20:51;25.90;90.70
60309;DHT22;50313;52.894;6.492;2023-09-18T15:23:26;26.00;89.90
60309;DHT22;50313;52.894;6.492;2023-09-18T15:25:52;26.40;90.30
60309;DHT22;50313;52.894;6.492;2023-09-18T15:28:24;26.90;88.30
60309;DHT22;50313;52.894;6.492;2023-09-18T15:30:52;27.10;88.10
60309;DHT22;50313;52.894;6.492;2023-09-18T15:33:18;27.10;87.60
60309;DHT22;50313;52.894;6.492;2023-09-18T15:35:45;27.40;86.20
60309;DHT22;50313;52.894;6.492;2023-09-18T15:38:11;27.30;85.70
60309;DHT22;50313;52.894;6.492;2023-09-18T15:40:37;27.20;86.40
60309;DHT22;50313;52.894;6.492;2023-09-18T15:43:03;27.20;86.00
60309;DHT22;50313;52.894;6.492;2023-09-18T15:45:29;27.30;85.20